sensor_id;sensor_type;location;lat;lon;timestamp;P1;durP1;ratioP1;P2;durP2;ratioP2
70414;SDS011;57837;52.064;113.478;2023-05-31T00:01:47;2.65;;;0.88;;
70414;SDS011;57837;52.064;113.478;2023-05-31T00:04:51;2.63;;;0.90;;
70414;SDS011;57837;52.064;113.478;2023-05-31T00:07:56;2.93;;;0.93;;
70414;SDS011;57837;52.064;113.478;2023-05-31T00:10:59;2.00;;;0.93;;
70414;SDS011;57837;52.064;113.478;2023-05-31T00:14:03;7.13;;;1.20;;
70414;SDS011;57837;52.064;113.478;2023-05-31T00:17:07;5.28;;;1.17;;
70414;SDS011;57837;52.064;113.478;2023-05-31T00:20:31;3.97;;;1.07;;
70414;SDS011;57837;52.064;113.478;2023-05-31T00:23:35;4.43;;;1.20;;
70414;SDS011;57837;52.064;113.478;2023-05-31T00:26:39;9.68;;;1.38;;
70414;SDS011;57837;52.064;113.478;2023-05-31T00:29:42;3.00;;;0.90;;
70414;SDS011;57837;52.064;113.478;2023-05-31T00:32:45;1.80;;;1.00;;
70414;SDS011;57837;52.064;113.478;2023-05-31T00:35:49;5.30;;;1.50;;
70414;SDS011;57837;52.064;113.478;2023-05-31T00:38:54;3.00;;;1.10;;
70414;SDS011;57837;52.064;113.478;2023-05-31T00:41:57;2.95;;;0.93;;
70414;SDS011;57837;52.064;113.478;2023-05-31T00:45:01;5.80;;;1.10;;
70414;SDS011;57837;52.064;113.478;2023-05-31T00:48:05;3.97;;;1.25;;
70414;SDS011;57837;52.064;113.478;2023-05-31T00:51:09;1.90;;;0.70;;
70414;SDS011;57837;52.064;113.478;2023-05-31T00:54:12;4.50;;;1.10;;
70414;SDS011;57837;52.064;113.478;2023-05-31T00:57:16;2.03;;;0.70;;
70414;SDS011;57837;52.064;113.478;2023-05-31T01:00:19;1.98;;;0.80;;
70414;SDS011;57837;52.064;113.478;2023-05-31T01:03:22;7.03;;;1.00;;
70414;SDS011;57837;52.064;113.478;2023-05-31T01:06:26;2.53;;;0.73;;
70414;SDS011;57837;52.064;113.478;2023-05-31T01:09:35;3.70;;;1.03;;
70414;SDS011;57837;52.064;113.478;2023-05-31T01:12:51;5.25;;;1.00;;
70414;SDS011;57837;52.064;113.478;2023-05-31T01:16:21;6.15;;;0.90;;
70414;SDS011;57837;52.064;113.478;2023-05-31T01:19:42;2.55;;;1.00;;
70414;SDS011;57837;52.064;113.478;2023-05-31T01:26:28;2.37;;;0.80;;
70414;SDS011;57837;52.064;113.478;2023-05-31T01:29:30;5.18;;;1.23;;
70414;SDS011;57837;52.064;113.478;2023-05-31T01:32:37;4.35;;;0.88;;
70414;SDS011;57837;52.064;113.478;2023-05-31T01:35:42;3.28;;;0.77;;
70414;SDS011;57837;52.064;113.478;2023-05-31T01:38:46;5.35;;;1.63;;
70414;SDS011;57837;52.064;113.478;2023-05-31T01:41:50;9.80;;;1.10;;
70414;SDS011;57837;52.064;113.478;2023-05-31T01:44:56;13.18;;;1.45;;
70414;SDS011;57837;52.064;113.478;2023-05-31T01:48:03;3.55;;;1.02;;
70414;SDS011;57837;52.064;113.478;2023-05-31T01:51:10;4.45;;;1.00;;
70414;SDS011;57837;52.064;113.478;2023-05-31T01:54:17;2.33;;;1.00;;
70414;SDS011;57837;52.064;113.478;2023-05-31T01:57:21;4.47;;;1.20;;
70414;SDS011;57837;52.064;113.478;2023-05-31T02:00:25;4.13;;;1.00;;
70414;SDS011;57837;52.064;113.478;2023-05-31T02:03:30;5.28;;;1.02;;
70414;SDS011;57837;52.064;113.478;2023-05-31T02:06:37;6.82;;;0.93;;
70414;SDS011;57837;52.064;113.478;2023-05-31T02:09:40;5.07;;;1.40;;
70414;SDS011;57837;52.064;113.478;2023-05-31T02:12:45;11.57;;;1.30;;
70414;SDS011;57837;52.064;113.478;2023-05-31T02:15:48;2.28;;;0.90;;
70414;SDS011;57837;52.064;113.478;2023-05-31T02:18:51;4.15;;;1.10;;
70414;SDS011;57837;52.064;113.478;2023-05-31T02:21:57;2.70;;;0.60;;
70414;SDS011;57837;52.064;113.478;2023-05-31T02:25:02;2.70;;;0.80;;
70414;SDS011;57837;52.064;113.478;2023-05-31T02:28:05;1.57;;;0.77;;
70414;SDS011;57837;52.064;113.478;2023-05-31T02:31:08;1.60;;;0.60;;
70414;SDS011;57837;52.064;113.478;2023-05-31T02:34:12;4.72;;;0.77;;
70414;SDS011;57837;52.064;113.478;2023-05-31T02:37:16;2.85;;;0.70;;
70414;SDS011;57837;52.064;113.478;2023-05-31T02:40:19;6.43;;;1.00;;
70414;SDS011;57837;52.064;113.478;2023-05-31T02:43:22;1.47;;;0.73;;
70414;SDS011;57837;52.064;113.478;2023-05-31T02:46:26;5.28;;;0.80;;
70414;SDS011;57837;52.064;113.478;2023-05-31T02:49:29;1.88;;;0.90;;
70414;SDS011;57837;52.064;113.478;2023-05-31T02:52:33;7.88;;;1.00;;
70414;SDS011;57837;52.064;113.478;2023-05-31T02:56:00;3.92;;;1.10;;
70414;SDS011;57837;52.064;113.478;2023-05-31T02:59:21;2.27;;;0.90;;
70414;SDS011;57837;52.064;113.478;2023-05-31T03:02:54;3.63;;;0.85;;
70414;SDS011;57837;52.064;113.478;2023-05-31T03:06:10;2.70;;;0.90;;
70414;SDS011;57837;52.064;113.478;2023-05-31T03:09:20;1.40;;;0.80;;
70414;SDS011;57837;52.064;113.478;2023-05-31T03:12:24;5.55;;;1.30;;
70414;SDS011;57837;52.064;113.478;2023-05-31T03:15:28;3.67;;;1.03;;
70414;SDS011;57837;52.064;113.478;2023-05-31T03:18:33;2.92;;;0.80;;
70414;SDS011;57837;52.064;113.478;2023-05-31T03:21:36;1.63;;;0.70;;
70414;SDS011;57837;52.064;113.478;2023-05-31T03:24:41;2.03;;;0.93;;
70414;SDS011;57837;52.064;113.478;2023-05-31T03:27:45;2.60;;;1.10;;
70414;SDS011;57837;52.064;113.478;2023-05-31T03:30:49;1.60;;;0.90;;
70414;SDS011;57837;52.064;113.478;2023-05-31T03:33:53;2.63;;;0.88;;
70414;SDS011;57837;52.064;113.478;2023-05-31T03:36:56;4.93;;;1.00;;
70414;SDS011;57837;52.064;113.478;2023-05-31T03:40:12;3.83;;;1.20;;
70414;SDS011;57837;52.064;113.478;2023-05-31T03:43:16;2.47;;;1.30;;
70414;SDS011;57837;52.064;113.478;2023-05-31T03:46:20;2.80;;;1.03;;
70414;SDS011;57837;52.064;113.478;2023-05-31T03:49:23;2.60;;;0.85;;
70414;SDS011;57837;52.064;113.478;2023-05-31T03:52:27;2.95;;;0.98;;
70414;SDS011;57837;52.064;113.478;2023-05-31T03:55:31;5.43;;;1.13;;
70414;SDS011;57837;52.064;113.478;2023-05-31T03:58:36;3.88;;;1.00;;
70414;SDS011;57837;52.064;113.478;2023-05-31T04:01:40;11.07;;;1.57;;
70414;SDS011;57837;52.064;113.478;2023-05-31T04:04:44;3.05;;;0.90;;
70414;SDS011;57837;52.064;113.478;2023-05-31T04:07:48;7.13;;;1.10;;
70414;SDS011;57837;52.064;113.478;2023-05-31T04:10:52;4.32;;;0.85;;
70414;SDS011;57837;52.064;113.478;2023-05-31T04:13:56;2.55;;;0.90;;
70414;SDS011;57837;52.064;113.478;2023-05-31T04:17:02;1.93;;;0.80;;
70414;SDS011;57837;52.064;113.478;2023-05-31T04:20:06;2.53;;;1.00;;
70414;SDS011;57837;52.064;113.478;2023-05-31T04:23:10;3.45;;;0.90;;
70414;SDS011;57837;52.064;113.478;2023-05-31T04:26:14;2.85;;;1.00;;
70414;SDS011;57837;52.064;113.478;2023-05-31T04:29:22;3.55;;;1.10;;
70414;SDS011;57837;52.064;113.478;2023-05-31T04:32:28;3.80;;;1.10;;
70414;SDS011;57837;52.064;113.478;2023-05-31T04:35:33;1.98;;;1.02;;
70414;SDS011;57837;52.064;113.478;2023-05-31T04:38:38;5.40;;;1.40;;
70414;SDS011;57837;52.064;113.478;2023-05-31T04:41:41;2.47;;;1.10;;
70414;SDS011;57837;52.064;113.478;2023-05-31T04:44:46;3.28;;;1.30;;
70414;SDS011;57837;52.064;113.478;2023-05-31T04:47:50;3.97;;;1.20;;
70414;SDS011;57837;52.064;113.478;2023-05-31T04:50:54;3.38;;;1.10;;
70414;SDS011;57837;52.064;113.478;2023-05-31T04:53:58;3.45;;;1.35;;
70414;SDS011;57837;52.064;113.478;2023-05-31T04:57:02;3.75;;;1.00;;
70414;SDS011;57837;52.064;113.478;2023-05-31T05:00:07;4.72;;;1.73;;
70414;SDS011;57837;52.064;113.478;2023-05-31T05:03:20;3.67;;;1.37;;
70414;SDS011;57837;52.064;113.478;2023-05-31T05:06:24;2.08;;;1.02;;
70414;SDS011;57837;52.064;113.478;2023-05-31T05:09:29;2.97;;;1.00;;
70414;SDS011;57837;52.064;113.478;2023-05-31T05:12:33;2.83;;;1.30;;
70414;SDS011;57837;52.064;113.478;2023-05-31T05:15:37;2.22;;;1.25;;
70414;SDS011;57837;52.064;113.478;2023-05-31T05:18:41;2.10;;;1.10;;
70414;SDS011;57837;52.064;113.478;2023-05-31T05:21:45;4.15;;;1.10;;
70414;SDS011;57837;52.064;113.478;2023-05-31T05:24:50;2.80;;;1.00;;
70414;SDS011;57837;52.064;113.478;2023-05-31T05:27:53;4.20;;;1.10;;
70414;SDS011;57837;52.064;113.478;2023-05-31T05:30:58;2.65;;;1.33;;
70414;SDS011;57837;52.064;113.478;2023-05-31T05:34:06;2.53;;;1.20;;
70414;SDS011;57837;52.064;113.478;2023-05-31T05:37:09;2.75;;;1.20;;
70414;SDS011;57837;52.064;113.478;2023-05-31T05:40:14;2.78;;;1.02;;
70414;SDS011;57837;52.064;113.478;2023-05-31T05:43:18;3.40;;;1.33;;
70414;SDS011;57837;52.064;113.478;2023-05-31T05:46:34;5.82;;;1.30;;
70414;SDS011;57837;52.064;113.478;2023-05-31T05:49:38;1.93;;;1.13;;
70414;SDS011;57837;52.064;113.478;2023-05-31T05:52:42;3.42;;;1.00;;
70414;SDS011;57837;52.064;113.478;2023-05-31T05:55:52;3.92;;;1.13;;
70414;SDS011;57837;52.064;113.478;2023-05-31T05:59:02;4.72;;;1.10;;
70414;SDS011;57837;52.064;113.478;2023-05-31T06:02:20;4.28;;;1.10;;
70414;SDS011;57837;52.064;113.478;2023-05-31T06:05:24;5.23;;;1.20;;
70414;SDS011;57837;52.064;113.478;2023-05-31T06:08:30;7.82;;;1.70;;
70414;SDS011;57837;52.064;113.478;2023-05-31T06:11:33;4.20;;;1.52;;
70414;SDS011;57837;52.064;113.478;2023-05-31T06:14:38;2.38;;;1.10;;
70414;SDS011;57837;52.064;113.478;2023-05-31T06:17:42;2.08;;;1.10;;
70414;SDS011;57837;52.064;113.478;2023-05-31T06:20:46;2.20;;;1.07;;
70414;SDS011;57837;52.064;113.478;2023-05-31T06:23:51;4.00;;;1.65;;
70414;SDS011;57837;52.064;113.478;2023-05-31T06:26:55;6.55;;;1.80;;
70414;SDS011;57837;52.064;113.478;2023-05-31T06:30:03;3.10;;;1.30;;
70414;SDS011;57837;52.064;113.478;2023-05-31T06:33:10;6.45;;;1.02;;
70414;SDS011;57837;52.064;113.478;2023-05-31T06:36:15;5.43;;;1.30;;
70414;SDS011;57837;52.064;113.478;2023-05-31T06:39:19;3.50;;;1.40;;
70414;SDS011;57837;52.064;113.478;2023-05-31T06:42:24;3.22;;;1.30;;
70414;SDS011;57837;52.064;113.478;2023-05-31T06:45:47;5.25;;;1.17;;
70414;SDS011;57837;52.064;113.478;2023-05-31T06:48:53;5.25;;;1.05;;
70414;SDS011;57837;52.064;113.478;2023-05-31T06:52:48;5.43;;;1.00;;
70414;SDS011;57837;52.064;113.478;2023-05-31T06:56:10;3.05;;;1.30;;
70414;SDS011;57837;52.064;113.478;2023-05-31T06:59:14;5.35;;;1.17;;
70414;SDS011;57837;52.064;113.478;2023-05-31T07:02:18;2.65;;;1.00;;
70414;SDS011;57837;52.064;113.478;2023-05-31T07:05:22;4.95;;;1.23;;
70414;SDS011;57837;52.064;113.478;2023-05-31T07:08:26;2.67;;;1.00;;
70414;SDS011;57837;52.064;113.478;2023-05-31T07:11:47;2.95;;;1.35;;
70414;SDS011;57837;52.064;113.478;2023-05-31T07:14:52;2.72;;;1.00;;
70414;SDS011;57837;52.064;113.478;2023-05-31T07:17:57;2.83;;;1.77;;
70414;SDS011;57837;52.064;113.478;2023-05-31T07:21:01;3.40;;;0.98;;
70414;SDS011;57837;52.064;113.478;2023-05-31T07:24:05;6.13;;;1.20;;
70414;SDS011;57837;52.064;113.478;2023-05-31T07:27:09;11.25;;;1.60;;
70414;SDS011;57837;52.064;113.478;2023-05-31T07:30:13;11.48;;;1.52;;
70414;SDS011;57837;52.064;113.478;2023-05-31T07:33:17;4.82;;;1.15;;
70414;SDS011;57837;52.064;113.478;2023-05-31T07:36:30;6.78;;;1.13;;
70414;SDS011;57837;52.064;113.478;2023-05-31T07:39:34;4.10;;;1.13;;
70414;SDS011;57837;52.064;113.478;2023-05-31T07:42:38;4.72;;;1.20;;
70414;SDS011;57837;52.064;113.478;2023-05-31T07:45:41;7.65;;;0.85;;
70414;SDS011;57837;52.064;113.478;2023-05-31T07:48:45;2.10;;;1.20;;
70414;SDS011;57837;52.064;113.478;2023-05-31T07:51:49;2.90;;;0.80;;
70414;SDS011;57837;52.064;113.478;2023-05-31T07:54:53;6.57;;;1.10;;
70414;SDS011;57837;52.064;113.478;2023-05-31T07:57:56;3.28;;;1.10;;
70414;SDS011;57837;52.064;113.478;2023-05-31T08:01:00;3.90;;;1.45;;
70414;SDS011;57837;52.064;113.478;2023-05-31T08:04:07;4.90;;;1.17;;
70414;SDS011;57837;52.064;113.478;2023-05-31T08:07:11;3.80;;;1.37;;
70414;SDS011;57837;52.064;113.478;2023-05-31T08:10:15;4.30;;;1.00;;
70414;SDS011;57837;52.064;113.478;2023-05-31T08:13:19;3.95;;;0.93;;
70414;SDS011;57837;52.064;113.478;2023-05-31T08:16:23;4.13;;;1.10;;
70414;SDS011;57837;52.064;113.478;2023-05-31T08:19:27;3.70;;;0.82;;
70414;SDS011;57837;52.064;113.478;2023-05-31T08:22:31;2.50;;;1.00;;
70414;SDS011;57837;52.064;113.478;2023-05-31T08:25:34;4.07;;;1.30;;
70414;SDS011;57837;52.064;113.478;2023-05-31T08:28:38;7.22;;;1.33;;
70414;SDS011;57837;52.064;113.478;2023-05-31T08:31:41;2.90;;;1.20;;
70414;SDS011;57837;52.064;113.478;2023-05-31T08:34:44;5.82;;;1.70;;
70414;SDS011;57837;52.064;113.478;2023-05-31T08:37:48;4.80;;;1.50;;
70414;SDS011;57837;52.064;113.478;2023-05-31T08:40:52;1.87;;;1.00;;
70414;SDS011;57837;52.064;113.478;2023-05-31T08:44:00;4.95;;;1.30;;
70414;SDS011;57837;52.064;113.478;2023-05-31T08:50:22;3.25;;;1.17;;
70414;SDS011;57837;52.064;113.478;2023-05-31T08:53:27;6.73;;;1.70;;
70414;SDS011;57837;52.064;113.478;2023-05-31T08:56:32;5.73;;;1.83;;
70414;SDS011;57837;52.064;113.478;2023-05-31T08:59:39;10.48;;;1.75;;
70414;SDS011;57837;52.064;113.478;2023-05-31T09:02:44;3.65;;;1.27;;
70414;SDS011;57837;52.064;113.478;2023-05-31T09:05:50;8.45;;;1.88;;
70414;SDS011;57837;52.064;113.478;2023-05-31T09:08:54;3.63;;;1.10;;
70414;SDS011;57837;52.064;113.478;2023-05-31T09:11:58;8.20;;;2.23;;
70414;SDS011;57837;52.064;113.478;2023-05-31T09:15:04;6.43;;;1.30;;
70414;SDS011;57837;52.064;113.478;2023-05-31T09:18:16;5.88;;;1.67;;
70414;SDS011;57837;52.064;113.478;2023-05-31T09:21:21;10.93;;;1.30;;
70414;SDS011;57837;52.064;113.478;2023-05-31T09:24:25;2.07;;;1.30;;
70414;SDS011;57837;52.064;113.478;2023-05-31T09:27:37;9.23;;;1.83;;
70414;SDS011;57837;52.064;113.478;2023-05-31T09:30:41;8.90;;;2.35;;
70414;SDS011;57837;52.064;113.478;2023-05-31T09:33:45;3.88;;;1.40;;
70414;SDS011;57837;52.064;113.478;2023-05-31T09:36:50;6.03;;;1.25;;
70414;SDS011;57837;52.064;113.478;2023-05-31T09:39:55;7.27;;;2.00;;
70414;SDS011;57837;52.064;113.478;2023-05-31T09:42:59;7.47;;;1.90;;
70414;SDS011;57837;52.064;113.478;2023-05-31T09:46:45;6.73;;;1.77;;
70414;SDS011;57837;52.064;113.478;2023-05-31T09:49:50;4.90;;;1.90;;
70414;SDS011;57837;52.064;113.478;2023-05-31T09:52:56;4.40;;;1.65;;
70414;SDS011;57837;52.064;113.478;2023-05-31T09:56:00;5.13;;;1.80;;
70414;SDS011;57837;52.064;113.478;2023-05-31T09:59:06;11.40;;;2.10;;
70414;SDS011;57837;52.064;113.478;2023-05-31T10:02:09;5.73;;;2.43;;
70414;SDS011;57837;52.064;113.478;2023-05-31T10:05:13;8.10;;;2.60;;
70414;SDS011;57837;52.064;113.478;2023-05-31T10:08:17;3.63;;;1.85;;
70414;SDS011;57837;52.064;113.478;2023-05-31T10:11:25;6.22;;;2.05;;
70414;SDS011;57837;52.064;113.478;2023-05-31T10:14:31;5.20;;;2.17;;
70414;SDS011;57837;52.064;113.478;2023-05-31T10:17:45;6.23;;;2.50;;
70414;SDS011;57837;52.064;113.478;2023-05-31T10:20:57;10.70;;;2.07;;
70414;SDS011;57837;52.064;113.478;2023-05-31T10:24:08;6.47;;;2.25;;
70414;SDS011;57837;52.064;113.478;2023-05-31T10:27:16;6.72;;;1.98;;
70414;SDS011;57837;52.064;113.478;2023-05-31T10:30:27;4.97;;;1.75;;
70414;SDS011;57837;52.064;113.478;2023-05-31T10:33:33;2.67;;;1.53;;
70414;SDS011;57837;52.064;113.478;2023-05-31T10:36:38;4.33;;;1.30;;
70414;SDS011;57837;52.064;113.478;2023-05-31T10:43:27;10.38;;;1.70;;
70414;SDS011;57837;52.064;113.478;2023-05-31T10:46:41;4.82;;;1.63;;
70414;SDS011;57837;52.064;113.478;2023-05-31T10:49:47;3.30;;;1.70;;
70414;SDS011;57837;52.064;113.478;2023-05-31T10:52:52;8.13;;;1.77;;
70414;SDS011;57837;52.064;113.478;2023-05-31T10:56:12;5.32;;;2.25;;
70414;SDS011;57837;52.064;113.478;2023-05-31T10:59:18;8.23;;;2.88;;
70414;SDS011;57837;52.064;113.478;2023-05-31T11:02:22;10.48;;;3.78;;
70414;SDS011;57837;52.064;113.478;2023-05-31T11:05:26;14.17;;;4.43;;
70414;SDS011;57837;52.064;113.478;2023-05-31T11:08:31;9.80;;;4.20;;
70414;SDS011;57837;52.064;113.478;2023-05-31T11:14:44;10.30;;;3.30;;
70414;SDS011;57837;52.064;113.478;2023-05-31T11:18:03;14.43;;;2.72;;
70414;SDS011;57837;52.064;113.478;2023-05-31T11:21:44;10.07;;;2.70;;
70414;SDS011;57837;52.064;113.478;2023-05-31T11:24:53;10.70;;;3.07;;
70414;SDS011;57837;52.064;113.478;2023-05-31T11:28:05;9.05;;;3.13;;
70414;SDS011;57837;52.064;113.478;2023-05-31T11:31:13;16.23;;;4.30;;
70414;SDS011;57837;52.064;113.478;2023-05-31T11:34:21;11.85;;;4.45;;
70414;SDS011;57837;52.064;113.478;2023-05-31T11:37:35;11.63;;;3.83;;
70414;SDS011;57837;52.064;113.478;2023-05-31T11:40:40;8.47;;;3.33;;
70414;SDS011;57837;52.064;113.478;2023-05-31T11:43:44;10.07;;;4.30;;
70414;SDS011;57837;52.064;113.478;2023-05-31T11:46:47;32.63;;;16.13;;
70414;SDS011;57837;52.064;113.478;2023-05-31T11:49:57;21.48;;;8.70;;
70414;SDS011;57837;52.064;113.478;2023-05-31T11:53:03;17.73;;;6.07;;
70414;SDS011;57837;52.064;113.478;2023-05-31T11:56:08;12.57;;;6.90;;
70414;SDS011;57837;52.064;113.478;2023-05-31T11:59:15;11.10;;;4.50;;
70414;SDS011;57837;52.064;113.478;2023-05-31T12:02:18;18.23;;;7.15;;
70414;SDS011;57837;52.064;113.478;2023-05-31T12:05:22;20.13;;;7.78;;
70414;SDS011;57837;52.064;113.478;2023-05-31T12:08:25;16.17;;;5.70;;
70414;SDS011;57837;52.064;113.478;2023-05-31T12:11:31;8.03;;;3.70;;
70414;SDS011;57837;52.064;113.478;2023-05-31T12:14:35;9.68;;;4.10;;
70414;SDS011;57837;52.064;113.478;2023-05-31T12:17:39;12.32;;;4.38;;
70414;SDS011;57837;52.064;113.478;2023-05-31T12:20:43;11.88;;;4.22;;
70414;SDS011;57837;52.064;113.478;2023-05-31T12:23:54;12.70;;;5.10;;
70414;SDS011;57837;52.064;113.478;2023-05-31T12:27:00;17.53;;;7.83;;
70414;SDS011;57837;52.064;113.478;2023-05-31T12:30:05;30.40;;;18.80;;
70414;SDS011;57837;52.064;113.478;2023-05-31T12:33:09;34.95;;;22.40;;
70414;SDS011;57837;52.064;113.478;2023-05-31T12:36:13;45.13;;;23.95;;
70414;SDS011;57837;52.064;113.478;2023-05-31T12:39:19;39.97;;;20.07;;
70414;SDS011;57837;52.064;113.478;2023-05-31T12:42:25;33.27;;;13.83;;
70414;SDS011;57837;52.064;113.478;2023-05-31T12:45:27;34.33;;;14.30;;
70414;SDS011;57837;52.064;113.478;2023-05-31T12:48:31;19.08;;;10.40;;
70414;SDS011;57837;52.064;113.478;2023-05-31T12:51:36;21.13;;;7.88;;
70414;SDS011;57837;52.064;113.478;2023-05-31T12:54:39;24.33;;;9.80;;
70414;SDS011;57837;52.064;113.478;2023-05-31T12:57:43;28.43;;;8.23;;
70414;SDS011;57837;52.064;113.478;2023-05-31T13:00:46;21.17;;;6.20;;
70414;SDS011;57837;52.064;113.478;2023-05-31T13:03:51;20.80;;;6.88;;
70414;SDS011;57837;52.064;113.478;2023-05-31T13:06:55;37.03;;;12.05;;
70414;SDS011;57837;52.064;113.478;2023-05-31T13:10:02;45.20;;;15.30;;
70414;SDS011;57837;52.064;113.478;2023-05-31T13:13:12;30.13;;;10.07;;
70414;SDS011;57837;52.064;113.478;2023-05-31T13:16:15;46.00;;;15.25;;
70414;SDS011;57837;52.064;113.478;2023-05-31T13:19:19;52.15;;;16.05;;
70414;SDS011;57837;52.064;113.478;2023-05-31T13:22:22;28.83;;;8.23;;
70414;SDS011;57837;52.064;113.478;2023-05-31T13:25:26;26.60;;;6.43;;
70414;SDS011;57837;52.064;113.478;2023-05-31T13:28:29;21.67;;;6.90;;
70414;SDS011;57837;52.064;113.478;2023-05-31T13:31:33;48.65;;;11.55;;
70414;SDS011;57837;52.064;113.478;2023-05-31T13:34:36;55.00;;;11.98;;
70414;SDS011;57837;52.064;113.478;2023-05-31T13:37:39;23.63;;;6.80;;
70414;SDS011;57837;52.064;113.478;2023-05-31T13:40:43;32.60;;;8.13;;
70414;SDS011;57837;52.064;113.478;2023-05-31T13:43:47;40.07;;;11.10;;
70414;SDS011;57837;52.064;113.478;2023-05-31T13:46:51;23.95;;;6.72;;
70414;SDS011;57837;52.064;113.478;2023-05-31T13:49:54;24.80;;;7.30;;
70414;SDS011;57837;52.064;113.478;2023-05-31T13:52:58;24.50;;;6.30;;
70414;SDS011;57837;52.064;113.478;2023-05-31T13:56:03;23.97;;;6.00;;
70414;SDS011;57837;52.064;113.478;2023-05-31T13:59:10;12.93;;;3.13;;
70414;SDS011;57837;52.064;113.478;2023-05-31T14:02:14;9.73;;;3.55;;
70414;SDS011;57837;52.064;113.478;2023-05-31T14:05:17;12.10;;;4.93;;
70414;SDS011;57837;52.064;113.478;2023-05-31T14:08:21;10.73;;;4.72;;
70414;SDS011;57837;52.064;113.478;2023-05-31T14:11:25;15.23;;;5.03;;
70414;SDS011;57837;52.064;113.478;2023-05-31T14:14:30;20.40;;;6.53;;
70414;SDS011;57837;52.064;113.478;2023-05-31T14:17:34;21.15;;;7.35;;
70414;SDS011;57837;52.064;113.478;2023-05-31T14:20:37;17.52;;;6.28;;
70414;SDS011;57837;52.064;113.478;2023-05-31T14:23:41;24.02;;;7.68;;
70414;SDS011;57837;52.064;113.478;2023-05-31T14:26:45;21.90;;;7.27;;
70414;SDS011;57837;52.064;113.478;2023-05-31T14:29:49;15.93;;;6.90;;
70414;SDS011;57837;52.064;113.478;2023-05-31T14:32:53;18.85;;;7.90;;
70414;SDS011;57837;52.064;113.478;2023-05-31T14:35:56;24.23;;;8.10;;
70414;SDS011;57837;52.064;113.478;2023-05-31T14:39:00;22.17;;;10.13;;
70414;SDS011;57837;52.064;113.478;2023-05-31T14:42:04;25.60;;;9.03;;
70414;SDS011;57837;52.064;113.478;2023-05-31T14:45:11;23.90;;;8.43;;
70414;SDS011;57837;52.064;113.478;2023-05-31T14:48:15;16.58;;;7.13;;
70414;SDS011;57837;52.064;113.478;2023-05-31T14:51:19;24.25;;;8.23;;
70414;SDS011;57837;52.064;113.478;2023-05-31T14:54:23;25.73;;;8.73;;
70414;SDS011;57837;52.064;113.478;2023-05-31T14:57:26;20.87;;;7.47;;
70414;SDS011;57837;52.064;113.478;2023-05-31T15:00:29;17.23;;;7.07;;
70414;SDS011;57837;52.064;113.478;2023-05-31T15:03:33;18.92;;;6.65;;
70414;SDS011;57837;52.064;113.478;2023-05-31T15:06:36;15.57;;;6.50;;
70414;SDS011;57837;52.064;113.478;2023-05-31T15:09:39;15.88;;;6.28;;
70414;SDS011;57837;52.064;113.478;2023-05-31T15:12:43;19.73;;;5.87;;
70414;SDS011;57837;52.064;113.478;2023-05-31T15:15:47;15.13;;;6.20;;
70414;SDS011;57837;52.064;113.478;2023-05-31T15:18:51;17.92;;;7.10;;
70414;SDS011;57837;52.064;113.478;2023-05-31T15:21:56;15.35;;;6.60;;
70414;SDS011;57837;52.064;113.478;2023-05-31T15:25:00;11.55;;;5.63;;
70414;SDS011;57837;52.064;113.478;2023-05-31T15:28:04;16.20;;;5.73;;
70414;SDS011;57837;52.064;113.478;2023-05-31T15:31:07;8.87;;;4.70;;
70414;SDS011;57837;52.064;113.478;2023-05-31T15:34:13;10.85;;;4.80;;
70414;SDS011;57837;52.064;113.478;2023-05-31T15:37:16;13.73;;;5.22;;
70414;SDS011;57837;52.064;113.478;2023-05-31T15:40:19;12.05;;;5.25;;
70414;SDS011;57837;52.064;113.478;2023-05-31T15:43:26;13.33;;;5.30;;
70414;SDS011;57837;52.064;113.478;2023-05-31T15:46:29;10.57;;;5.20;;
70414;SDS011;57837;52.064;113.478;2023-05-31T15:49:33;14.32;;;5.13;;
70414;SDS011;57837;52.064;113.478;2023-05-31T15:52:39;12.80;;;5.45;;
70414;SDS011;57837;52.064;113.478;2023-05-31T15:55:42;19.45;;;8.07;;
70414;SDS011;57837;52.064;113.478;2023-05-31T15:58:47;22.77;;;9.33;;
70414;SDS011;57837;52.064;113.478;2023-05-31T16:01:50;32.43;;;10.33;;
70414;SDS011;57837;52.064;113.478;2023-05-31T16:04:56;27.42;;;10.05;;
70414;SDS011;57837;52.064;113.478;2023-05-31T16:08:00;24.92;;;9.60;;
70414;SDS011;57837;52.064;113.478;2023-05-31T16:11:07;24.92;;;11.23;;
70414;SDS011;57837;52.064;113.478;2023-05-31T16:14:10;25.33;;;9.40;;
70414;SDS011;57837;52.064;113.478;2023-05-31T16:17:13;21.27;;;8.97;;
70414;SDS011;57837;52.064;113.478;2023-05-31T16:20:17;28.48;;;10.48;;
70414;SDS011;57837;52.064;113.478;2023-05-31T16:23:20;22.52;;;8.65;;
70414;SDS011;57837;52.064;113.478;2023-05-31T16:26:25;26.35;;;8.00;;
70414;SDS011;57837;52.064;113.478;2023-05-31T16:29:29;28.00;;;7.50;;
70414;SDS011;57837;52.064;113.478;2023-05-31T16:32:33;23.37;;;7.00;;
70414;SDS011;57837;52.064;113.478;2023-05-31T16:35:37;14.55;;;6.70;;
70414;SDS011;57837;52.064;113.478;2023-05-31T16:38:42;19.67;;;6.57;;
70414;SDS011;57837;52.064;113.478;2023-05-31T16:41:46;12.48;;;6.00;;
70414;SDS011;57837;52.064;113.478;2023-05-31T16:44:50;11.53;;;3.40;;
70414;SDS011;57837;52.064;113.478;2023-05-31T16:47:56;9.97;;;4.10;;
70414;SDS011;57837;52.064;113.478;2023-05-31T16:51:00;10.27;;;3.42;;
70414;SDS011;57837;52.064;113.478;2023-05-31T16:54:04;7.97;;;3.20;;
70414;SDS011;57837;52.064;113.478;2023-05-31T16:57:07;10.30;;;3.05;;
70414;SDS011;57837;52.064;113.478;2023-05-31T17:00:12;13.03;;;3.50;;
70414;SDS011;57837;52.064;113.478;2023-05-31T17:03:16;7.70;;;2.93;;
70414;SDS011;57837;52.064;113.478;2023-05-31T17:06:20;5.50;;;2.30;;
70414;SDS011;57837;52.064;113.478;2023-05-31T17:09:24;5.47;;;2.67;;
70414;SDS011;57837;52.064;113.478;2023-05-31T17:12:27;7.07;;;2.80;;
70414;SDS011;57837;52.064;113.478;2023-05-31T17:15:30;5.83;;;2.37;;
70414;SDS011;57837;52.064;113.478;2023-05-31T17:18:34;11.47;;;2.10;;
70414;SDS011;57837;52.064;113.478;2023-05-31T17:21:38;6.75;;;2.30;;
70414;SDS011;57837;52.064;113.478;2023-05-31T17:24:42;4.38;;;2.20;;
70414;SDS011;57837;52.064;113.478;2023-05-31T17:27:46;5.18;;;2.03;;
70414;SDS011;57837;52.064;113.478;2023-05-31T17:30:51;4.73;;;1.87;;
70414;SDS011;57837;52.064;113.478;2023-05-31T17:33:55;4.80;;;2.30;;
70414;SDS011;57837;52.064;113.478;2023-05-31T17:36:58;5.50;;;2.50;;
70414;SDS011;57837;52.064;113.478;2023-05-31T17:40:03;8.30;;;2.67;;
70414;SDS011;57837;52.064;113.478;2023-05-31T17:43:06;6.55;;;2.47;;
70414;SDS011;57837;52.064;113.478;2023-05-31T17:46:09;5.57;;;2.13;;
70414;SDS011;57837;52.064;113.478;2023-05-31T17:49:13;4.13;;;2.37;;
70414;SDS011;57837;52.064;113.478;2023-05-31T17:52:17;8.45;;;2.30;;
70414;SDS011;57837;52.064;113.478;2023-05-31T17:55:21;6.55;;;2.33;;
70414;SDS011;57837;52.064;113.478;2023-05-31T17:58:27;10.90;;;2.13;;
70414;SDS011;57837;52.064;113.478;2023-05-31T18:01:31;7.97;;;2.60;;
70414;SDS011;57837;52.064;113.478;2023-05-31T18:04:38;5.90;;;2.33;;
70414;SDS011;57837;52.064;113.478;2023-05-31T18:07:41;4.47;;;2.08;;
70414;SDS011;57837;52.064;113.478;2023-05-31T18:10:44;5.20;;;1.98;;
70414;SDS011;57837;52.064;113.478;2023-05-31T18:13:48;5.82;;;1.85;;